Time;durP1;ratioP1;P1;durP2;ratioP2;P2;SDS_P1;SDS_P2;PMS_P1;PMS_P2;Temp;Humidity;BMP_temperature;BMP_pressure;BME280_temperature;BME280_humidity;BME280_pressure;Samples;Min_cycle;Max_cycle;Signal;HPM_P1;HPM_P2
2023/06/30 00:00:22;;;;;;;6.43;4.75;;;20.60;73.20;;;;;;5017734;28;20049;-71
2023/06/30 00:02:49;;;;;;;6.75;4.85;;;20.60;73.20;;;;;;5017363;28;20061;-70
2023/06/30 00:05:16;;;;;;;6.05;4.40;;;20.50;73.30;;;;;;5006811;28;20050;-69
2023/06/30 00:07:43;;;;;;;6.30;4.40;;;20.40;73.40;;;;;;5016297;28;20073;-71
2023/06/30 00:10:11;;;;;;;6.93;4.80;;;20.50;73.30;;;;;;5005865;28;20089;-68
2023/06/30 00:12:39;;;;;;;7.35;4.38;;;20.50;73.10;;;;;;5005428;28;20123;-71
2023/06/30 00:15:07;;;;;;;6.72;4.22;;;20.50;72.90;;;;;;5015757;28;20061;-70
2023/06/30 00:17:33;;;;;;;7.03;4.35;;;20.40;73.00;;;;;;5011883;28;20060;-71
2023/06/30 00:20:05;;;;;;;7.18;4.55;;;20.40;73.00;;;;;;5016507;28;20056;-71
2023/06/30 00:22:35;;;;;;;5.57;3.72;;;20.30;73.20;;;;;;5014747;28;20096;-69
2023/06/30 00:25:03;;;;;;;7.78;4.30;;;20.30;73.30;;;;;;5015829;28;20049;-70
2023/06/30 00:27:30;;;;;;;6.95;4.78;;;20.30;73.20;;;;;;5019154;28;20042;-69
2023/06/30 00:29:58;;;;;;;6.75;4.43;;;20.20;73.20;;;;;;5011803;28;20037;-68
2023/06/30 00:32:27;;;;;;;6.43;4.50;;;20.20;73.40;;;;;;5014724;28;20048;-69
2023/06/30 00:34:54;;;;;;;;;;;20.20;73.60;;;;;;5016571;28;20065;-68
2023/06/30 00:37:21;;;;;;;5.43;4.05;;;20.10;73.80;;;;;;5017161;28;19928;-68
2023/06/30 00:39:48;;;;;;;6.75;4.55;;;20.10;74.00;;;;;;4998782;28;20061;-69
2023/06/30 00:42:15;;;;;;;6.93;4.70;;;20.10;74.10;;;;;;5015247;28;20079;-68
2023/06/30 00:44:42;;;;;;;6.80;5.28;;;20.10;74.40;;;;;;5016127;28;20060;-69
2023/06/30 00:47:10;;;;;;;8.23;5.72;;;20.00;74.80;;;;;;5010960;28;20141;-73
2023/06/30 00:49:38;;;;;;;9.40;5.53;;;20.00;74.80;;;;;;5015739;28;20068;-69
2023/06/30 00:52:06;;;;;;;8.50;5.80;;;20.00;74.80;;;;;;5016123;28;20120;-69
2023/06/30 00:54:33;;;;;;;9.20;5.65;;;20.00;74.80;;;;;;5017601;28;20034;-69
2023/06/30 00:57:05;;;;;;;8.90;5.82;;;20.00;74.80;;;;;;4993011;28;20049;-69
2023/06/30 00:59:32;;;;;;;7.07;5.30;;;19.90;74.80;;;;;;5010111;28;20056;-70
2023/06/30 01:02:03;;;;;;;8.00;5.57;;;19.90;74.90;;;;;;5003078;28;20045;-69
2023/06/30 01:04:37;;;;;;;9.23;6.07;;;19.90;74.80;;;;;;5014555;28;20038;-70
2023/06/30 01:07:11;;;;;;;7.68;5.50;;;19.90;75.00;;;;;;5013717;28;20049;-70
2023/06/30 01:09:45;;;;;;;11.50;6.28;;;19.90;75.10;;;;;;5014746;28;20050;-69
2023/06/30 01:12:12;;;;;;;8.20;5.88;;;19.80;75.20;;;;;;5016337;28;20058;-69
2023/06/30 01:14:39;;;;;;;8.88;6.05;;;19.80;75.40;;;;;;5016887;28;20052;-68
2023/06/30 01:17:08;;;;;;;8.13;6.07;;;19.80;75.50;;;;;;5010016;28;20061;-70
2023/06/30 01:19:44;;;;;;;7.78;5.78;;;19.70;75.60;;;;;;4978973;28;20411;-70
2023/06/30 01:22:19;;;;;;;8.15;6.00;;;19.70;75.70;;;;;;4969750;28;20427;-70
2023/06/30 01:24:50;;;;;;;7.63;5.63;;;19.70;75.60;;;;;;4966604;28;20058;-71
2023/06/30 01:27:17;;;;;;;8.65;5.72;;;19.70;75.60;;;;;;5010836;28;20050;-70
2023/06/30 01:29:44;;;;;;;8.15;6.07;;;19.60;75.80;;;;;;5008201;28;20474;-69
2023/06/30 01:32:16;;;;;;;7.88;5.78;;;19.70;75.90;;;;;;4999107;28;20133;-69
2023/06/30 01:34:45;;;;;;;8.45;5.22;;;19.60;75.80;;;;;;4986738;28;20065;-69
2023/06/30 01:37:13;;;;;;;7.88;5.03;;;19.60;75.60;;;;;;5000304;28;20058;-70
2023/06/30 01:39:40;;;;;;;6.80;5.03;;;19.60;75.60;;;;;;5020631;28;20048;-71
2023/06/30 01:42:08;;;;;;;7.13;4.93;;;19.50;75.50;;;;;;5019954;28;20057;-70
2023/06/30 01:44:36;;;;;;;8.63;5.10;;;19.60;75.50;;;;;;5019924;28;20061;-69
2023/06/30 01:47:05;;;;;;;6.80;4.97;;;19.50;75.40;;;;;;4999612;28;20042;-69
2023/06/30 01:49:33;;;;;;;6.88;4.63;;;19.50;75.40;;;;;;5017717;28;20049;-69
2023/06/30 01:52:02;;;;;;;7.90;5.28;;;19.50;75.50;;;;;;4997914;28;20132;-69
2023/06/30 01:54:29;;;;;;;6.78;4.93;;;19.40;75.60;;;;;;5016882;28;20481;-69
2023/06/30 01:56:56;;;;;;;5.47;4.05;;;19.40;75.60;;;;;;5017663;28;21066;-69
2023/06/30 01:59:23;;;;;;;7.18;4.78;;;19.40;75.70;;;;;;5002472;28;20100;-70
2023/06/30 02:01:50;;;;;;;7.18;4.85;;;19.40;75.80;;;;;;5018530;28;20591;-70
2023/06/30 02:04:17;;;;;;;7.20;4.80;;;19.30;75.90;;;;;;5018450;28;20500;-69
2023/06/30 02:06:47;;;;;;;7.32;4.78;;;19.40;76.00;;;;;;4996917;28;20061;-68
2023/06/30 02:09:16;;;;;;;7.60;5.00;;;19.30;75.90;;;;;;5015897;28;20989;-69
2023/06/30 02:11:44;;;;;;;9.70;4.78;;;19.30;76.00;;;;;;5019503;28;20123;-69
2023/06/30 02:14:16;;;;;;;6.05;4.60;;;19.40;76.10;;;;;;5003578;28;20152;-70
2023/06/30 02:16:43;;;;;;;8.15;5.50;;;19.40;76.10;;;;;;5015586;28;20487;-71
2023/06/30 02:19:10;;;;;;;10.15;6.32;;;19.40;76.00;;;;;;5012053;28;20441;-70
2023/06/30 02:21:37;;;;;;;8.30;5.55;;;19.40;75.90;;;;;;4997968;28;20525;-69
2023/06/30 02:24:05;;;;;;;9.95;6.07;;;19.40;76.20;;;;;;4990873;28;20056;-70
2023/06/30 02:26:33;;;;;;;9.30;6.93;;;19.40;76.20;;;;;;4993922;28;20569;-70
2023/06/30 02:29:00;;;;;;;7.60;5.57;;;19.50;76.10;;;;;;5018028;28;20051;-69
2023/06/30 02:31:27;;;;;;;8.65;5.60;;;19.50;76.10;;;;;;5019145;28;20057;-70
2023/06/30 02:33:54;;;;;;;8.55;5.70;;;19.40;76.30;;;;;;4998321;28;20049;-69
2023/06/30 02:36:21;;;;;;;7.47;5.60;;;19.40;76.40;;;;;;5014185;28;20045;-70
2023/06/30 02:38:48;;;;;;;8.23;5.95;;;19.30;76.60;;;;;;4996942;28;20144;-69
2023/06/30 02:41:15;;;;;;;9.07;5.93;;;19.30;76.70;;;;;;4996707;28;20045;-68
2023/06/30 02:43:44;;;;;;;7.95;5.70;;;19.40;76.60;;;;;;5017168;28;20045;-71
2023/06/30 02:46:11;;;;;;;9.25;6.57;;;19.30;76.60;;;;;;5019256;28;20061;-69
2023/06/30 02:48:38;;;;;;;10.20;6.75;;;19.40;76.30;;;;;;4999226;28;20045;-70
2023/06/30 02:51:05;;;;;;;7.22;5.75;;;19.40;76.20;;;;;;4984844;28;20054;-70
2023/06/30 02:53:33;;;;;;;7.85;5.78;;;19.30;76.40;;;;;;5018390;28;20049;-70
2023/06/30 02:56:01;;;;;;;9.40;5.85;;;19.30;76.30;;;;;;4993721;28;20064;-70
2023/06/30 02:58:30;;;;;;;9.48;6.68;;;19.30;76.50;;;;;;4999173;28;20489;-70
2023/06/30 03:00:58;;;;;;;9.02;5.72;;;19.30;76.50;;;;;;4997997;28;20038;-68
2023/06/30 03:03:25;;;;;;;6.70;5.25;;;19.30;76.60;;;;;;5010299;28;20049;-69
2023/06/30 03:05:52;;;;;;;8.57;5.97;;;19.20;76.70;;;;;;4996470;28;20053;-69
2023/06/30 03:08:21;;;;;;;9.90;6.18;;;19.20;76.90;;;;;;4991441;28;20060;-70
2023/06/30 03:10:49;;;;;;;8.32;5.75;;;19.20;77.00;;;;;;5000539;28;20057;-69
2023/06/30 03:13:16;;;;;;;8.10;5.78;;;19.10;76.90;;;;;;4998931;28;20727;-69
2023/06/30 03:15:44;;;;;;;8.52;5.38;;;19.10;77.00;;;;;;4997971;28;20137;-71
2023/06/30 03:18:12;;;;;;;9.70;6.20;;;19.10;76.90;;;;;;4999803;28;20048;-69
2023/06/30 03:20:40;;;;;;;7.53;5.82;;;19.10;76.90;;;;;;5012610;28;20064;-70
2023/06/30 03:23:07;;;;;;;7.60;5.20;;;19.10;77.00;;;;;;5016003;28;20057;-69
2023/06/30 03:25:36;;;;;;;8.80;6.28;;;19.20;77.00;;;;;;5017113;28;20052;-69
2023/06/30 03:28:03;;;;;;;8.65;6.47;;;19.10;77.00;;;;;;5014031;28;20046;-71
2023/06/30 03:30:30;;;;;;;9.75;6.60;;;19.10;77.00;;;;;;4998428;28;20076;-70
2023/06/30 03:32:57;;;;;;;8.75;6.22;;;19.20;76.80;;;;;;5016148;28;20121;-70
2023/06/30 03:35:25;;;;;;;8.75;6.00;;;19.20;76.90;;;;;;5015105;28;20045;-69
2023/06/30 03:37:52;;;;;;;9.48;6.63;;;19.10;77.00;;;;;;5015250;28;20050;-72
2023/06/30 03:40:19;;;;;;;7.82;5.38;;;19.10;77.00;;;;;;4986931;28;20085;-69
2023/06/30 03:42:46;;;;;;;8.20;5.90;;;19.20;76.90;;;;;;4974780;28;20060;-70
2023/06/30 03:45:13;;;;;;;9.82;5.90;;;19.10;77.00;;;;;;4992947;28;20133;-71
2023/06/30 03:47:40;;;;;;;8.65;5.97;;;19.10;77.20;;;;;;4982466;28;20172;-70
2023/06/30 03:50:07;;;;;;;8.68;5.78;;;19.10;77.20;;;;;;5019796;28;20088;-71
2023/06/30 03:52:36;;;;;;;8.10;5.40;;;19.10;77.20;;;;;;5016698;28;20049;-70
2023/06/30 03:55:04;;;;;;;7.50;5.47;;;19.10;77.40;;;;;;4986322;28;20134;-70
2023/06/30 03:57:31;;;;;;;8.40;5.55;;;19.10;77.40;;;;;;4979203;28;20395;-69
2023/06/30 03:59:58;;;;;;;9.35;6.50;;;19.10;76.90;;;;;;4997373;28;20050;-70
2023/06/30 04:02:24;;;;;;;10.35;6.47;;;19.20;76.50;;;;;;4981327;28;20054;-70
2023/06/30 04:04:51;;;;;;;10.07;6.43;;;19.30;76.40;;;;;;4995522;28;20042;-69
2023/06/30 04:07:19;;;;;;;8.85;6.43;;;19.40;76.20;;;;;;4993806;28;20049;-69
2023/06/30 04:09:47;;;;;;;9.82;6.53;;;19.30;76.10;;;;;;5000394;28;20053;-69
2023/06/30 04:12:14;;;;;;;9.55;6.88;;;19.20;76.60;;;;;;5016423;28;20053;-69
2023/06/30 04:14:41;;;;;;;9.65;6.35;;;19.10;76.90;;;;;;5014161;28;21118;-69
2023/06/30 04:17:08;;;;;;;8.98;6.40;;;19.20;76.70;;;;;;5014459;28;20042;-69
2023/06/30 04:19:35;;;;;;;9.95;6.72;;;19.10;76.80;;;;;;5009694;28;20038;-69
2023/06/30 04:22:02;;;;;;;11.38;6.88;;;19.20;76.60;;;;;;5011389;28;20524;-69
2023/06/30 04:24:28;;;;;;;9.13;6.97;;;19.20;76.70;;;;;;5014966;28;20041;-69
2023/06/30 04:26:57;;;;;;;9.55;6.80;;;19.20;76.60;;;;;;5015586;28;20041;-68
2023/06/30 04:29:24;;;;;;;8.38;6.13;;;19.30;76.30;;;;;;5014172;28;20049;-68
2023/06/30 04:31:51;;;;;;;9.73;6.63;;;19.40;76.30;;;;;;5016699;28;20073;-70
2023/06/30 04:34:18;;;;;;;8.82;6.32;;;19.40;76.10;;;;;;5013656;28;20061;-69
2023/06/30 04:36:45;;;;;;;8.75;6.40;;;19.40;76.10;;;;;;5015179;28;20049;-71
2023/06/30 04:39:12;;;;;;;8.82;6.57;;;19.30;76.10;;;;;;5014598;28;20099;-70
2023/06/30 04:41:39;;;;;;;8.15;5.95;;;19.40;76.00;;;;;;5013456;28;20056;-71
2023/06/30 04:44:07;;;;;;;10.02;6.60;;;19.40;76.00;;;;;;5009701;28;20089;-69
2023/06/30 04:46:34;;;;;;;10.38;6.70;;;19.40;75.90;;;;;;5010494;28;20132;-70
2023/06/30 04:49:03;;;;;;;8.95;6.20;;;19.40;75.50;;;;;;4988356;28;20083;-69
2023/06/30 04:51:30;;;;;;;7.70;5.70;;;19.50;75.80;;;;;;4995434;28;20147;-70
2023/06/30 04:53:57;;;;;;;9.07;6.55;;;19.40;76.10;;;;;;4992788;28;20045;-71
2023/06/30 04:56:24;;;;;;;10.68;6.47;;;19.30;76.50;;;;;;5011852;28;20053;-69
2023/06/30 04:58:51;;;;;;;10.30;6.28;;;19.40;76.40;;;;;;5014244;28;20062;-69
2023/06/30 05:01:19;;;;;;;9.98;6.47;;;19.30;76.70;;;;;;5011544;28;20061;-70
2023/06/30 05:03:46;;;;;;;9.98;6.85;;;19.20;76.80;;;;;;4994641;28;20046;-69
2023/06/30 05:06:13;;;;;;;8.77;6.47;;;19.20;76.80;;;;;;5014958;28;20053;-69
2023/06/30 05:08:40;;;;;;;9.60;6.00;;;19.30;76.90;;;;;;5013509;28;20054;-69
2023/06/30 05:11:07;;;;;;;8.20;5.80;;;19.30;76.90;;;;;;5013256;28;20056;-69
2023/06/30 05:13:34;;;;;;;8.57;6.05;;;19.30;76.90;;;;;;5014206;28;20058;-70
2023/06/30 05:16:01;;;;;;;7.80;6.00;;;19.30;76.90;;;;;;5011417;28;20436;-69
2023/06/30 05:18:29;;;;;;;8.80;6.43;;;19.30;77.10;;;;;;5011946;28;20689;-69
2023/06/30 05:20:56;;;;;;;9.23;6.05;;;19.30;77.00;;;;;;5016541;28;20053;-72
2023/06/30 05:23:23;;;;;;;8.93;6.35;;;19.30;77.10;;;;;;5013766;28;20049;-69
2023/06/30 05:25:50;;;;;;;8.07;5.90;;;19.30;77.00;;;;;;5012498;28;20097;-70
2023/06/30 05:28:17;;;;;;;9.38;6.00;;;19.30;77.10;;;;;;4994676;28;20057;-70
2023/06/30 05:30:47;;;;;;;8.57;6.22;;;19.40;77.30;;;;;;5014698;28;20053;-69
2023/06/30 05:33:15;;;;;;;8.50;6.00;;;19.40;77.60;;;;;;5014423;28;20124;-70
2023/06/30 05:35:45;;;;;;;8.85;6.47;;;19.30;77.90;;;;;;5015734;28;20054;-68
2023/06/30 05:38:12;;;;;;;;;;;19.30;78.20;;;;;;5016632;28;20065;-69
2023/06/30 05:40:38;;;;;;;9.10;5.88;;;19.40;78.30;;;;;;4995019;28;19929;-69
2023/06/30 05:43:05;;;;;;;8.68;6.10;;;19.50;78.20;;;;;;4994699;28;20046;-69
2023/06/30 05:45:32;;;;;;;11.70;6.97;;;19.50;78.40;;;;;;4993225;28;20694;-69
2023/06/30 05:47:59;;;;;;;10.02;6.93;;;19.40;78.60;;;;;;4995965;28;20512;-69
2023/06/30 05:50:27;;;;;;;10.77;7.03;;;19.30;78.70;;;;;;4997794;28;20050;-68
2023/06/30 05:52:55;;;;;;;9.05;6.70;;;19.30;78.90;;;;;;4996203;28;20047;-69
2023/06/30 05:55:22;;;;;;;9.05;6.85;;;19.30;79.20;;;;;;4994736;28;20053;-70
2023/06/30 05:57:49;;;;;;;9.02;6.80;;;19.30;78.90;;;;;;4991938;28;20524;-69
2023/06/30 06:00:17;;;;;;;10.70;7.43;;;19.30;79.20;;;;;;4976013;28;20045;-71
2023/06/30 06:02:44;;;;;;;9.88;6.65;;;19.30;79.30;;;;;;4983296;28;20071;-70
2023/06/30 06:05:11;;;;;;;10.73;6.88;;;19.30;79.40;;;;;;5011499;28;20485;-69
2023/06/30 06:07:40;;;;;;;9.43;6.32;;;19.30;79.40;;;;;;5014269;28;20466;-69
2023/06/30 06:10:09;;;;;;;9.13;6.20;;;19.40;79.20;;;;;;5016057;28;20516;-70
2023/06/30 06:12:39;;;;;;;8.45;6.38;;;19.50;79.10;;;;;;5007134;28;20413;-68
2023/06/30 06:15:07;;;;;;;8.23;6.18;;;19.50;79.10;;;;;;4994332;28;20094;-69
2023/06/30 06:17:34;;;;;;;10.57;6.60;;;19.60;79.00;;;;;;5017410;28;20053;-68
2023/06/30 06:20:01;;;;;;;8.30;6.07;;;19.60;78.70;;;;;;5019910;28;20049;-69
2023/06/30 06:22:28;;;;;;;9.00;6.65;;;19.60;78.40;;;;;;5021043;28;20196;-68
2023/06/30 06:24:54;;;;;;;9.60;7.00;;;19.60;78.60;;;;;;5018706;28;20060;-68
2023/06/30 06:27:23;;;;;;;10.23;6.43;;;19.60;78.80;;;;;;5017979;28;20054;-69
2023/06/30 06:29:50;;;;;;;11.60;7.55;;;19.60;79.10;;;;;;5018055;28;20041;-69
2023/06/30 06:32:18;;;;;;;9.15;6.60;;;19.60;79.00;;;;;;5013668;28;20485;-69
2023/06/30 06:34:45;;;;;;;10.90;6.70;;;19.60;79.00;;;;;;5019323;28;20058;-69
2023/06/30 06:37:12;;;;;;;10.20;6.47;;;19.70;78.70;;;;;;5018768;28;20136;-69
2023/06/30 06:39:39;;;;;;;10.85;6.72;;;19.70;78.70;;;;;;5016673;28;20058;-67
2023/06/30 06:42:07;;;;;;;8.57;6.93;;;19.70;78.60;;;;;;5019661;28;20088;-68
2023/06/30 06:44:35;;;;;;;9.90;6.40;;;19.70;78.40;;;;;;5020230;28;20136;-69
2023/06/30 06:47:39;;;;;;;11.18;6.55;;;19.70;78.30;;;;;;5018597;28;20042;-69
2023/06/30 06:50:07;;;;;;;8.30;6.70;;;19.70;78.70;;;;;;5015988;28;20069;-69
2023/06/30 06:52:34;;;;;;;8.20;6.75;;;19.70;78.80;;;;;;5019304;28;20045;-69
2023/06/30 06:55:02;;;;;;;10.20;6.68;;;19.70;79.20;;;;;;5017982;28;20077;-69
2023/06/30 06:57:29;;;;;;;9.13;6.70;;;19.70;79.10;;;;;;5014304;28;20384;-68
2023/06/30 06:59:58;;;;;;;8.35;6.25;;;19.80;79.10;;;;;;5019354;28;20103;-68
2023/06/30 07:02:25;;;;;;;10.65;7.07;;;19.80;79.10;;;;;;5018523;28;20489;-69
2023/06/30 07:04:52;;;;;;;9.68;7.30;;;19.80;79.10;;;;;;5002319;28;20062;-69
2023/06/30 07:07:20;;;;;;;10.52;7.13;;;19.90;79.30;;;;;;5005898;28;20050;-69
2023/06/30 07:09:46;;;;;;;10.77;6.95;;;19.90;78.90;;;;;;5017371;28;20053;-68
2023/06/30 07:12:13;;;;;;;10.07;6.80;;;20.00;79.00;;;;;;5013241;28;20054;-69
2023/06/30 07:14:40;;;;;;;9.98;7.38;;;20.10;78.90;;;;;;5016152;28;20055;-69
2023/06/30 07:17:09;;;;;;;9.25;7.20;;;20.10;79.00;;;;;;5016150;28;20054;-69
2023/06/30 07:19:36;;;;;;;9.32;7.25;;;20.20;78.90;;;;;;5019539;28;20054;-69
2023/06/30 07:22:03;;;;;;;10.18;7.40;;;20.30;78.90;;;;;;4999466;28;20046;-67
2023/06/30 07:24:30;;;;;;;9.25;6.78;;;20.40;78.40;;;;;;5017903;28;20044;-69
2023/06/30 07:26:58;;;;;;;10.15;7.40;;;20.50;78.50;;;;;;5012185;28;20046;-68
2023/06/30 07:29:25;;;;;;;10.55;7.45;;;20.60;78.40;;;;;;5015272;28;20123;-69
2023/06/30 07:31:52;;;;;;;9.60;7.28;;;20.70;78.10;;;;;;5018087;28;20664;-69
2023/06/30 07:34:23;;;;;;;10.32;7.25;;;20.80;77.70;;;;;;5014340;28;20824;-70
2023/06/30 07:36:50;;;;;;;9.45;6.68;;;20.80;77.80;;;;;;5016259;28;20054;-70
2023/06/30 07:39:18;;;;;;;9.77;7.18;;;20.80;77.60;;;;;;5015849;28;20060;-69
2023/06/30 07:41:44;;;;;;;9.45;7.05;;;20.90;77.50;;;;;;5015620;28;20056;-70
2023/06/30 07:44:11;;;;;;;9.85;7.00;;;20.80;77.60;;;;;;5013408;28;20068;-69
2023/06/30 07:46:39;;;;;;;10.38;6.90;;;20.80;77.40;;;;;;5017251;28;20050;-69
2023/06/30 07:49:06;;;;;;;10.90;7.72;;;20.80;77.50;;;;;;5016418;28;20046;-70
2023/06/30 07:51:34;;;;;;;11.77;7.70;;;20.80;77.40;;;;;;5016157;28;20064;-69
2023/06/30 07:54:01;;;;;;;10.20;7.82;;;20.70;77.00;;;;;;5015411;28;20056;-67
2023/06/30 07:56:28;;;;;;;10.80;7.68;;;20.80;76.80;;;;;;5015618;28;20049;-68
2023/06/30 07:58:55;;;;;;;9.75;7.57;;;20.90;77.50;;;;;;5016314;28;20046;-68
2023/06/30 08:01:22;;;;;;;13.35;8.45;;;20.90;76.70;;;;;;5016702;28;20053;-66
2023/06/30 08:03:49;;;;;;;10.43;7.40;;;21.00;76.60;;;;;;5017750;28;20057;-65
2023/06/30 08:06:15;;;;;;;12.50;7.55;;;21.10;77.30;;;;;;5011006;28;20291;-66
2023/06/30 08:08:44;;;;;;;13.50;8.20;;;21.10;75.90;;;;;;5005487;28;20136;-66
2023/06/30 08:11:11;;;;;;;10.18;8.00;;;21.20;76.50;;;;;;5012278;28;20509;-67
2023/06/30 08:13:38;;;;;;;11.35;8.35;;;21.30;76.00;;;;;;5014894;28;20124;-66
2023/06/30 08:16:05;;;;;;;12.88;8.18;;;21.30;76.10;;;;;;5013768;28;20054;-66
2023/06/30 08:18:32;;;;;;;11.48;8.30;;;21.50;76.30;;;;;;5016407;28;20057;-67
2023/06/30 08:20:59;;;;;;;10.65;7.82;;;21.70;75.60;;;;;;5014384;28;20057;-65
2023/06/30 08:23:26;;;;;;;12.27;8.63;;;21.80;75.70;;;;;;5015793;28;20428;-66
2023/06/30 08:25:55;;;;;;;11.32;8.07;;;22.00;75.50;;;;;;5015891;28;20412;-64
2023/06/30 08:28:22;;;;;;;13.43;9.45;;;22.10;75.00;;;;;;5017556;28;20157;-66
2023/06/30 08:30:49;;;;;;;11.32;8.70;;;22.20;74.70;;;;;;5013777;28;20073;-65
2023/06/30 08:33:16;;;;;;;12.18;9.23;;;22.20;74.50;;;;;;5015468;28;20390;-65
2023/06/30 08:35:43;;;;;;;13.05;9.48;;;22.30;74.30;;;;;;5017251;28;20141;-66
2023/06/30 08:38:10;;;;;;;15.02;9.75;;;22.40;74.00;;;;;;5014289;28;20066;-66
2023/06/30 08:40:37;;;;;;;12.82;9.82;;;22.60;73.80;;;;;;5014785;28;20045;-67
2023/06/30 08:43:11;;;;;;;13.27;9.98;;;22.60;73.60;;;;;;5015980;28;20061;-66
2023/06/30 08:45:41;;;;;;;13.63;10.70;;;22.80;73.30;;;;;;5015548;28;20050;-66
2023/06/30 08:48:08;;;;;;;13.63;9.98;;;23.00;73.10;;;;;;5003443;28;20050;-66
2023/06/30 08:50:35;;;;;;;13.35;9.77;;;23.10;72.20;;;;;;5014025;28;20056;-66
2023/06/30 08:53:03;;;;;;;12.25;10.10;;;23.10;72.00;;;;;;5005582;28;20057;-65
2023/06/30 08:55:30;;;;;;;11.90;10.13;;;23.10;72.10;;;;;;5015370;28;20053;-65
2023/06/30 08:57:58;;;;;;;12.70;10.30;;;23.00;72.10;;;;;;5015286;28;20049;-65
2023/06/30 09:00:27;;;;;;;16.00;10.75;;;23.00;72.10;;;;;;5016176;28;20100;-66
2023/06/30 09:02:55;;;;;;;12.97;10.37;;;22.90;72.40;;;;;;5016569;28;20076;-66
2023/06/30 09:05:24;;;;;;;16.27;12.90;;;22.90;72.40;;;;;;5011197;28;20447;-66
2023/06/30 09:07:54;;;;;;;20.75;15.88;;;22.90;72.60;;;;;;5013834;28;20078;-66
2023/06/30 09:10:22;;;;;;;17.80;14.30;;;22.80;72.90;;;;;;5017063;28;20112;-66
2023/06/30 09:12:54;;;;;;;18.17;14.18;;;22.70;73.00;;;;;;5014656;28;20053;-66
2023/06/30 09:15:21;;;;;;;20.42;15.82;;;22.60;73.40;;;;;;5012421;28;20472;-66
2023/06/30 09:17:50;;;;;;;22.00;17.35;;;22.60;73.50;;;;;;5015786;28;20074;-66
2023/06/30 09:20:17;;;;;;;20.13;16.48;;;22.50;73.70;;;;;;5012276;28;20050;-67
2023/06/30 09:22:44;;;;;;;20.52;17.13;;;22.40;73.70;;;;;;5012967;28;20053;-66
2023/06/30 09:25:40;;;;;;;19.58;15.90;;;22.30;73.70;;;;;;5013033;28;20409;-67
2023/06/30 09:28:10;;;;;;;20.88;16.48;;;22.20;73.70;;;;;;5004900;28;20116;-66
2023/06/30 09:30:40;;;;;;;21.27;16.55;;;22.20;73.70;;;;;;5013941;28;20112;-66
2023/06/30 09:33:09;;;;;;;24.85;18.05;;;22.20;73.90;;;;;;5016978;28;20069;-66
2023/06/30 09:35:39;;;;;;;23.77;18.00;;;22.10;74.40;;;;;;5013682;28;20049;-66
2023/06/30 09:38:12;;;;;;;22.55;17.35;;;22.10;74.40;;;;;;4980092;28;20073;-65
2023/06/30 09:40:42;;;;;;;22.10;17.88;;;22.10;74.20;;;;;;4978112;28;20101;-66
2023/06/30 09:43:09;;;;;;;21.80;17.33;;;22.10;74.40;;;;;;4977269;28;20039;-65
2023/06/30 09:45:36;;;;;;;22.52;18.13;;;22.10;74.50;;;;;;4977600;28;20490;-66
2023/06/30 09:48:03;;;;;;;27.35;19.73;;;22.10;74.50;;;;;;4975198;28;20058;-66
2023/06/30 09:50:32;;;;;;;24.58;19.52;;;22.10;74.30;;;;;;4984647;28;20057;-66
2023/06/30 09:53:01;;;;;;;25.80;18.33;;;22.10;74.20;;;;;;4999244;28;20081;-66
2023/06/30 09:55:28;;;;;;;23.25;18.75;;;22.00;74.50;;;;;;5017101;28;20413;-66
2023/06/30 09:57:56;;;;;;;23.02;19.15;;;22.10;74.60;;;;;;5019276;28;20045;-66
2023/06/30 10:00:25;;;;;;;22.67;19.17;;;22.00;74.20;;;;;;5018438;28;20494;-66
2023/06/30 10:03:03;;;;;;;24.33;19.17;;;22.00;74.30;;;;;;5019187;28;20042;-66
2023/06/30 10:05:31;;;;;;;23.80;18.92;;;22.00;74.30;;;;;;5001058;28;20042;-66
2023/06/30 10:08:00;;;;;;;25.85;20.00;;;22.00;74.50;;;;;;5015418;28;20769;-66
2023/06/30 10:10:28;;;;;;;30.45;22.75;;;22.00;74.50;;;;;;5008295;28;20061;-65
2023/06/30 10:12:58;;;;;;;25.65;20.95;;;22.00;74.70;;;;;;5015972;28;21232;-66
2023/06/30 10:15:25;;;;;;;;;;;22.00;74.80;;;;;;5004415;28;20041;-66
2023/06/30 10:17:54;;;;;;;27.23;20.45;;;21.90;74.80;;;;;;5017891;28;20431;-65
2023/06/30 10:20:21;;;;;;;24.92;20.65;;;22.00;75.10;;;;;;4996355;28;20046;-66
2023/06/30 10:22:49;;;;;;;28.92;22.23;;;22.00;74.70;;;;;;4983108;28;20050;-66
2023/06/30 10:25:20;;;;;;;26.47;21.03;;;22.00;74.30;;;;;;5006440;28;20038;-64
2023/06/30 10:27:49;;;;;;;26.40;21.52;;;22.10;74.10;;;;;;5018416;28;20477;-67
2023/06/30 10:30:17;;;;;;;27.30;21.05;;;22.10;74.10;;;;;;5012583;28;20185;-67
2023/06/30 10:32:44;;;;;;;23.83;19.40;;;22.10;74.00;;;;;;5009643;28;20060;-67
2023/06/30 10:35:14;;;;;;;23.63;17.80;;;22.10;74.50;;;;;;5017829;28;20046;-66
2023/06/30 10:37:42;;;;;;;20.38;16.08;;;22.10;74.00;;;;;;5016182;28;20034;-66
2023/06/30 10:40:25;;;;;;;18.92;15.00;;;22.10;74.20;;;;;;5016884;28;20060;-66
2023/06/30 10:42:54;;;;;;;14.00;11.40;;;22.00;74.00;;;;;;5018378;28;20490;-66
2023/06/30 10:45:21;;;;;;;13.73;10.37;;;21.90;73.80;;;;;;5019226;28;20045;-65
2023/06/30 10:47:51;;;;;;;12.70;9.60;;;22.00;73.60;;;;;;5015900;28;20053;-64
2023/06/30 10:50:18;;;;;;;14.10;8.73;;;21.90;73.80;;;;;;5019523;28;20053;-67
2023/06/30 10:52:53;;;;;;;10.98;8.15;;;21.80;73.70;;;;;;5014116;28;20065;-66
2023/06/30 10:55:23;;;;;;;9.82;7.10;;;21.80;73.50;;;;;;5009472;28;20057;-66
2023/06/30 10:57:54;;;;;;;9.35;6.05;;;21.70;73.50;;;;;;5016493;28;20057;-66
2023/06/30 11:00:24;;;;;;;9.38;6.35;;;21.70;73.40;;;;;;5017949;28;20049;-66
2023/06/30 11:02:56;;;;;;;9.48;6.05;;;21.70;73.40;;;;;;5016457;28;20508;-66
2023/06/30 11:05:25;;;;;;;7.63;5.28;;;21.70;73.30;;;;;;5002710;28;20057;-66
2023/06/30 11:07:53;;;;;;;6.88;4.80;;;21.60;73.50;;;;;;5014845;28;20053;-66
2023/06/30 11:10:37;;;;;;;7.20;4.40;;;21.60;73.50;;;;;;5002400;28;20048;-66
2023/06/30 11:13:09;;;;;;;7.00;4.00;;;21.50;73.80;;;;;;4995242;28;20145;-66
2023/06/30 11:15:38;;;;;;;6.78;3.88;;;21.40;73.70;;;;;;4997550;28;20413;-66
2023/06/30 11:18:06;;;;;;;8.43;4.53;;;21.50;73.20;;;;;;4997951;28;20446;-66
2023/06/30 11:20:34;;;;;;;5.73;3.83;;;21.40;73.20;;;;;;5018599;28;20053;-66
2023/06/30 11:23:03;;;;;;;5.68;3.67;;;21.30;72.80;;;;;;5017725;28;20050;-66
2023/06/30 11:25:31;;;;;;;7.83;4.07;;;21.40;72.50;;;;;;5013179;28;20137;-66
2023/06/30 11:28:02;;;;;;;6.35;3.90;;;21.30;72.60;;;;;;5015349;28;21243;-66
2023/06/30 11:30:32;;;;;;;6.55;3.72;;;21.30;72.60;;;;;;5017104;28;20057;-66
2023/06/30 11:32:59;;;;;;;6.68;3.55;;;21.20;72.60;;;;;;5015373;28;20163;-66
2023/06/30 11:35:29;;;;;;;7.15;4.30;;;21.30;72.80;;;;;;5017078;28;20046;-66
2023/06/30 11:37:56;;;;;;;6.38;3.83;;;21.20;72.50;;;;;;5015811;28;20087;-67
2023/06/30 11:40:23;;;;;;;9.60;4.55;;;21.20;72.80;;;;;;5008804;28;20093;-66
2023/06/30 11:42:52;;;;;;;6.60;4.35;;;21.20;72.80;;;;;;5011359;28;20045;-66
2023/06/30 11:45:21;;;;;;;7.80;5.53;;;21.20;72.90;;;;;;5008550;28;20092;-65
2023/06/30 11:47:51;;;;;;;8.80;5.72;;;21.20;72.60;;;;;;4979937;28;20081;-67
2023/06/30 11:50:19;;;;;;;8.27;5.30;;;21.20;72.40;;;;;;4981180;28;20090;-67
2023/06/30 11:52:47;;;;;;;6.75;5.10;;;21.10;72.40;;;;;;4980022;28;20088;-65
2023/06/30 11:55:15;;;;;;;8.02;4.32;;;21.10;72.30;;;;;;4977020;28;20054;-66
2023/06/30 11:57:46;;;;;;;5.35;3.80;;;21.10;72.20;;;;;;4980226;28;20585;-65
2023/06/30 12:00:16;;;;;;;5.85;3.25;;;21.10;72.10;;;;;;4980236;28;20053;-67
2023/06/30 12:02:57;;;;;;;4.78;3.05;;;21.20;71.90;;;;;;4984638;28;20055;-64
2023/06/30 12:05:25;;;;;;;5.10;2.78;;;21.30;71.90;;;;;;5016911;28;20065;-66
2023/06/30 12:07:55;;;;;;;5.38;2.30;;;21.30;71.60;;;;;;5015335;28;20133;-64
2023/06/30 12:10:22;;;;;;;4.35;2.55;;;21.30;71.60;;;;;;5008675;28;20093;-66
2023/06/30 12:12:57;;;;;;;5.03;2.50;;;21.30;71.50;;;;;;5016117;28;20390;-65
2023/06/30 12:15:24;;;;;;;4.05;2.40;;;21.30;71.90;;;;;;5015875;28;20050;-67
2023/06/30 12:17:55;;;;;;;4.97;2.10;;;21.30;71.80;;;;;;5015532;28;20488;-66
2023/06/30 12:20:34;;;;;;;4.57;2.58;;;21.30;71.80;;;;;;5015357;28;20050;-66
2023/06/30 12:23:01;;;;;;;;;;;21.30;71.40;;;;;;5017526;28;20058;-66
2023/06/30 12:25:31;;;;;;;5.20;2.15;;;21.40;71.20;;;;;;5013987;28;19921;-66
2023/06/30 12:27:58;;;;;;;;;;;21.50;70.80;;;;;;5017560;28;20100;-66
2023/06/30 12:30:28;;;;;;;3.28;1.80;;;21.50;70.90;;;;;;5016253;28;19925;-65
2023/06/30 12:32:59;;;;;;;2.03;1.23;;;21.60;70.40;;;;;;4998857;28;20128;-66
2023/06/30 12:35:32;;;;;;;3.28;1.40;;;21.80;70.10;;;;;;5013750;28;20073;-66
2023/06/30 12:37:59;;;;;;;2.55;1.38;;;22.00;70.20;;;;;;5014879;28;20052;-66
2023/06/30 12:40:28;;;;;;;2.42;1.50;;;22.10;69.80;;;;;;5015844;28;20065;-66
2023/06/30 12:42:56;;;;;;;3.80;1.58;;;22.10;69.50;;;;;;5014882;28;20417;-65
2023/06/30 12:45:23;;;;;;;3.58;2.05;;;22.10;69.40;;;;;;5013564;28;20128;-65
2023/06/30 12:47:50;;;;;;;4.28;1.92;;;22.20;69.00;;;;;;5015016;28;20053;-66